Time;durP1;ratioP1;P1;durP2;ratioP2;P2;SDS_P1;SDS_P2;PMS_P1;PMS_P2;Temp;Humidity;BMP_temperature;BMP_pressure;BME280_temperature;BME280_humidity;BME280_pressure;Samples;Min_cycle;Max_cycle;Signal;HPM_P1;HPM_P2
2021/04/18 00:01:20;;;;;;;4.97;3.50;;;;;;;;;;5096135;28;20819;-74
2021/04/18 00:03:46;;;;;;;11.90;4.80;;;;;;;;;;5092991;28;20769;-74
2021/04/18 00:06:12;;;;;;;4.80;3.03;;;;;;;;;;5076431;28;20776;-73
2021/04/18 00:08:39;;;;;;;6.73;3.70;;;;;;;;;;5075666;28;20851;-74
2021/04/18 00:11:05;;;;;;;5.40;3.43;;;;;;;;;;5077179;28;20484;-72
2021/04/18 00:13:31;;;;;;;6.30;3.47;;;;;;;;;;5095481;28;20928;-72
2021/04/18 00:15:57;;;;;;;9.33;3.87;;;;;;;;;;5095703;28;20961;-72
2021/04/18 00:18:23;;;;;;;3.97;3.03;;;;;;;;;;5082748;28;20904;-72
2021/04/18 00:20:49;;;;;;;12.43;4.00;;;;;;;;;;5076166;28;20928;-72
2021/04/18 00:23:15;;;;;;;7.20;3.63;;;;;;;;;;5095677;28;20431;-72
2021/04/18 00:25:41;;;;;;;7.23;3.00;;;;;;;;;;5083049;28;20903;-72
2021/04/18 00:28:07;;;;;;;6.70;3.60;;;;;;;;;;5076081;28;20441;-72
2021/04/18 00:30:33;;;;;;;7.03;3.77;;;;;;;;;;5074851;28;20409;-72
2021/04/18 00:33:00;;;;;;;16.17;4.43;;;;;;;;;;5083379;28;20756;-72
2021/04/18 00:35:26;;;;;;;7.40;3.77;;;;;;;;;;5086182;28;20461;-72
2021/04/18 00:37:52;;;;;;;7.10;3.47;;;;;;;;;;5076170;28;20397;-72
2021/04/18 00:40:25;;;;;;;15.00;4.70;;;;;;;;;;5084695;28;20869;-72
2021/04/18 00:42:52;;;;;;;5.10;3.20;;;8.80;1.00;;;;;;5096266;28;20479;-72
2021/04/18 00:45:19;;;;;;;8.40;3.63;;;;;;;;;;5093963;28;21035;-72
2021/04/18 00:47:51;;;;;;;5.33;3.77;;;8.70;1.00;;;;;;5096026;28;20485;-72
2021/04/18 00:50:27;;;;;;;8.80;3.60;;;8.70;1.00;;;;;;5096034;28;20396;-72
2021/04/18 00:52:53;;;;;;;7.00;3.00;;;8.60;1.00;;;;;;5091194;28;20425;-72
2021/04/18 00:55:20;;;;;;;6.27;4.23;;;;;;;;;;5075867;28;20457;-72
2021/04/18 00:57:46;;;;;;;5.17;3.47;;;;;;;;;;5075777;28;20438;-72
2021/04/18 01:00:12;;;;;;;5.23;3.20;;;;;;;;;;5074394;28;20858;-72
2021/04/18 01:02:39;;;;;;;6.27;3.30;;;;;;;;;;5075581;28;20430;-72
2021/04/18 01:05:07;;;;;;;8.43;4.43;;;;;;;;;;5085843;28;20756;-72
2021/04/18 01:07:34;;;;;;;7.57;3.93;;;8.30;1.00;;;;;;5080159;28;20417;-72
2021/04/18 01:10:00;;;;;;;7.87;3.40;;;;;;;;;;5076304;28;20436;-75
2021/04/18 01:12:26;;;;;;;5.07;3.47;;;;;;;;;;5075502;28;20496;-74
2021/04/18 01:14:53;;;;;;;4.00;2.93;;;;;;;;;;5075728;28;20890;-74
2021/04/18 01:17:19;;;;;;;10.70;3.93;;;;;;;;;;5075406;28;20398;-74
2021/04/18 01:19:45;;;;;;;6.67;3.63;;;;;;;;;;5086426;28;20415;-74
2021/04/18 01:22:12;;;;;;;10.20;3.80;;;;;;;;;;5095494;28;20774;-74
2021/04/18 01:24:41;;;;;;;4.10;2.90;;;;;;;;;;5081761;28;20420;-72
2021/04/18 01:27:09;;;;;;;10.93;4.17;;;;;;;;;;5075950;28;20409;-74
2021/04/18 01:29:36;;;;;;;11.83;3.53;;;;;;;;;;5075340;28;20381;-74
2021/04/18 01:32:06;;;;;;;9.20;3.43;;;;;;;;;;5075098;28;20400;-74
2021/04/18 01:34:32;;;;;;;7.17;3.30;;;;;;;;;;5075376;28;20740;-74
2021/04/18 01:37:00;;;;;;;8.00;3.60;;;;;;;;;;5074903;28;20445;-74
2021/04/18 01:39:26;;;;;;;11.87;4.00;;;;;;;;;;5088724;28;20405;-74
2021/04/18 01:41:52;;;;;;;6.73;3.13;;;;;;;;;;5095350;28;20401;-72
2021/04/18 01:44:18;;;;;;;9.83;3.77;;;7.80;1.00;;;;;;5085091;28;20440;-72
2021/04/18 01:46:45;;;;;;;8.87;3.87;;;7.80;1.00;;;;;;5078415;28;20783;-73
2021/04/18 01:49:12;;;;;;;9.03;3.50;;;7.80;1.00;;;;;;5094749;28;20588;-72
2021/04/18 01:51:38;;;;;;;6.60;4.33;;;;;;;;;;5094213;28;20424;-72
2021/04/18 01:54:05;;;;;;;7.53;3.67;;;7.80;1.00;;;;;;5077763;28;20421;-73
2021/04/18 01:56:32;;;;;;;8.03;3.37;;;;;;;;;;5074817;28;20463;-74
2021/04/18 01:58:58;;;;;;;4.43;2.83;;;;;;;;;;5074646;28;20511;-74
2021/04/18 02:01:24;;;;;;;4.67;3.17;;;;;;;;;;5074506;28;21058;-74
2021/04/18 02:03:51;;;;;;;10.17;4.07;;;;;;;;;;5086054;28;20441;-74
2021/04/18 02:06:18;;;;;;;3.53;3.00;;;;;;;;;;5080150;28;20460;-74
2021/04/18 02:08:44;;;;;;;3.57;2.53;;;;;;;;;;5080122;28;20426;-74
2021/04/18 02:11:10;;;;;;;4.50;3.10;;;;;;;;;;5085613;28;20885;-74
2021/04/18 02:13:37;;;;;;;11.40;3.40;;;;;;;;;;5074192;28;20432;-74
2021/04/18 02:16:06;;;;;;;5.63;3.20;;;;;;;;;;5073157;28;20556;-74
2021/04/18 02:18:32;;;;;;;5.67;3.30;;;;;;;;;;5074279;28;20386;-74
2021/04/18 02:21:06;;;;;;;5.40;3.17;;;;;;;;;;5073970;28;20390;-74
2021/04/18 02:23:36;;;;;;;8.47;3.10;;;;;;;;;;5074036;28;20488;-74
2021/04/18 02:26:02;;;;;;;9.83;4.53;;;;;;;;;;5079745;28;20914;-74
2021/04/18 02:28:28;;;;;;;4.63;3.10;;;;;;;;;;5081231;28;20769;-74
2021/04/18 02:30:54;;;;;;;6.03;2.90;;;;;;;;;;5073947;28;20862;-74
2021/04/18 02:33:24;;;;;;;7.60;3.80;;;;;;;;;;5072578;28;20405;-74
2021/04/18 02:35:54;;;;;;;4.10;2.87;;;;;;;;;;5075722;28;20979;-74
2021/04/18 02:38:20;;;;;;;8.10;3.33;;;;;;;;;;5091285;28;20420;-74
2021/04/18 02:40:46;;;;;;;5.00;3.50;;;;;;;;;;5074173;28;20896;-72
2021/04/18 02:43:12;;;;;;;12.40;3.13;;;;;;;;;;5073727;28;20870;-72
2021/04/18 02:45:42;;;;;;;6.93;3.60;;;;;;;;;;5073544;28;21001;-72
2021/04/18 02:48:08;;;;;;;4.10;3.10;;;;;;;;;;5073730;28;20898;-72
2021/04/18 02:50:42;;;;;;;5.10;3.37;;;;;;;;;;5073594;28;20470;-72
2021/04/18 02:53:08;;;;;;;5.90;3.40;;;;;;;;;;5073631;28;20424;-72
2021/04/18 02:55:34;;;;;;;5.13;3.57;;;;;;;;;;5072618;28;20840;-73
2021/04/18 02:58:00;;;;;;;10.17;4.00;;;;;;;;;;5083510;28;20920;-74
2021/04/18 03:00:30;;;;;;;3.83;2.80;;;;;;;;;;5090570;28;20868;-74
2021/04/18 03:02:57;;;;;;;5.40;2.80;;;;;;;;;;5086496;28;20500;-74
2021/04/18 03:05:23;;;;;;;6.50;3.20;;;;;;;;;;5088232;28;20464;-74
2021/04/18 03:07:54;;;;;;;3.53;2.80;;;;;;;;;;5093686;28;20416;-74
2021/04/18 03:10:30;;;;;;;3.10;2.47;;;;;;;;;;5076994;28;20515;-74
2021/04/18 03:12:57;;;;;;;5.73;3.50;;;;;;;;;;5073635;28;20421;-72
2021/04/18 03:15:24;;;;;;;6.50;2.90;;;;;;;;;;5073446;28;20437;-72
2021/04/18 03:17:50;;;;;;;5.63;3.37;;;;;;;;;;5073520;28;20390;-73
2021/04/18 03:20:17;;;;;;;6.60;2.80;;;;;;;;;;5073499;28;20470;-72
2021/04/18 03:22:43;;;;;;;5.97;3.37;;;;;;;;;;5073266;28;20935;-72
2021/04/18 03:25:10;;;;;;;7.67;3.50;;;;;;;;;;5073296;28;20408;-73
2021/04/18 03:27:36;;;;;;;7.03;3.27;;;;;;;;;;5084212;28;20784;-74
2021/04/18 03:30:10;;;;;;;4.80;3.17;;;8.40;1.00;;;;;;5090560;28;20980;-74
2021/04/18 03:32:36;;;;;;;5.80;3.27;;;;;;;;;;5093542;28;20470;-74
2021/04/18 03:35:06;;;;;;;5.07;3.27;;;8.30;1.00;;;;;;5093542;28;20526;-74
2021/04/18 03:37:32;;;;;;;4.87;3.40;;;;;;;;;;5082162;28;20419;-74
2021/04/18 03:40:00;;;;;;;7.33;3.30;;;;;;;;;;5076722;28;20417;-74
2021/04/18 03:42:27;;;;;;;5.00;3.63;;;;;;;;;;5093733;28;20854;-72
2021/04/18 03:44:53;;;;;;;5.90;3.10;;;;;;;;;;5093291;28;20485;-72
2021/04/18 03:47:19;;;;;;;9.10;2.93;;;;;;;;;;5085199;28;20836;-73
2021/04/18 03:49:45;;;;;;;8.17;3.87;;;;;;;;;;5073075;28;20396;-73
2021/04/18 03:52:11;;;;;;;5.57;3.40;;;;;;;;;;5073008;28;20836;-73
2021/04/18 03:54:37;;;;;;;5.80;2.97;;;;;;;;;;5073169;28;20425;-73
2021/04/18 03:57:03;;;;;;;6.23;3.43;;;;;;;;;;5071781;28;20949;-74
2021/04/18 03:59:29;;;;;;;10.17;3.40;;;;;;;;;;5073143;28;20390;-74
2021/04/18 04:01:55;;;;;;;6.00;3.73;;;;;;;;;;5075624;28;20416;-75
2021/04/18 04:04:21;;;;;;;4.00;3.17;;;;;;;;;;5079757;28;20435;-74
2021/04/18 04:06:49;;;;;;;9.50;3.07;;;;;;;;;;5087859;28;20512;-75
2021/04/18 04:09:18;;;;;;;14.30;4.00;;;;;;;;;;5077051;28;20429;-74
2021/04/18 04:11:44;;;;;;;5.00;3.27;;;;;;;;;;5076986;28;20400;-74
2021/04/18 04:14:10;;;;;;;15.93;3.63;;;;;;;;;;5076831;28;20763;-74
2021/04/18 04:16:42;;;;;;;5.93;3.93;;;;;;;;;;5075311;28;20880;-74
2021/04/18 04:19:08;;;;;;;7.57;4.20;;;;;;;;;;5082436;28;20903;-74
2021/04/18 04:21:35;;;;;;;8.33;3.67;;;;;;;;;;5096330;28;20454;-74
2021/04/18 04:24:06;;;;;;;6.67;3.90;;;;;;;;;;5078226;28;20421;-74
2021/04/18 04:26:32;;;;;;;8.70;4.70;;;;;;;;;;5094005;28;20420;-75
2021/04/18 04:28:58;;;;;;;11.00;4.13;;;;;;;;;;5096721;28;20496;-74
2021/04/18 04:31:25;;;;;;;8.30;3.50;;;;;;;;;;5096138;28;20396;-74
2021/04/18 04:33:54;;;;;;;7.77;4.00;;;;;;;;;;5082869;28;20417;-74
2021/04/18 04:36:21;;;;;;;6.87;4.10;;;;;;;;;;5075913;28;20459;-75
2021/04/18 04:38:49;;;;;;;10.43;3.83;;;;;;;;;;5075758;28;20394;-74
2021/04/18 04:41:15;;;;;;;7.67;4.00;;;;;;;;;;5075606;28;20420;-74
2021/04/18 04:43:41;;;;;;;9.73;4.50;;;;;;;;;;5076624;28;20421;-74
2021/04/18 04:46:18;;;;;;;11.03;4.60;;;;;;;;;;5075905;28;20936;-74
2021/04/18 04:48:44;;;;;;;7.27;4.60;;;;;;;;;;5076063;28;20449;-74
2021/04/18 04:51:18;;;;;;;8.13;5.10;;;;;;;;;;5083486;28;20901;-74
2021/04/18 04:53:44;;;;;;;12.67;4.90;;;;;;;;;;5075919;28;20942;-74
2021/04/18 04:56:10;;;;;;;5.60;4.23;;;;;;;;;;5075933;28;20751;-74
2021/04/18 04:58:36;;;;;;;7.50;4.40;;;;;;;;;;5076000;28;20889;-73
2021/04/18 05:01:03;;;;;;;7.97;4.27;;;;;;;;;;5075223;28;20381;-73
2021/04/18 05:03:29;;;;;;;8.63;3.90;;;;;;;;;;5075072;28;20420;-73
2021/04/18 05:05:55;;;;;;;4.83;3.40;;;;;;;;;;5085499;28;20475;-78
2021/04/18 05:08:59;;;;;;;7.20;4.00;;;8.00;1.00;;;;;;5093599;28;20436;-79
2021/04/18 05:11:25;;;;;;;8.90;4.33;;;;;;;;;;5075548;28;20400;-76
2021/04/18 05:13:52;;;;;;;11.57;4.60;;;;;;;;;;5076129;28;20516;-75
2021/04/18 05:16:18;;;;;;;11.80;4.60;;;;;;;;;;5075495;28;20532;-75
2021/04/18 05:18:44;;;;;;;8.40;4.80;;;;;;;;;;5089563;28;21040;-75
2021/04/18 05:21:12;;;;;;;7.93;4.60;;;7.90;1.00;;;;;;5094348;28;20752;-76
2021/04/18 05:23:38;;;;;;;8.80;4.07;;;;;;;;;;5095749;28;20397;-73
2021/04/18 05:26:04;;;;;;;8.83;4.50;;;;;;;;;;5095428;28;20711;-75
2021/04/18 05:28:31;;;;;;;10.37;5.00;;;8.10;1.00;;;;;;5086182;28;20752;-75
2021/04/18 05:31:00;;;;;;;10.00;4.67;;;;;;;;;;5076334;28;20747;-74
2021/04/18 05:33:30;;;;;;;9.50;4.80;;;;;;;;;;5088646;28;20507;-74
2021/04/18 05:35:56;;;;;;;10.10;4.63;;;;;;;;;;5090785;28;20788;-74
2021/04/18 05:38:23;;;;;;;6.93;4.40;;;;;;;;;;5075112;28;20831;-74
2021/04/18 05:40:54;;;;;;;7.73;4.97;;;;;;;;;;5073863;28;20410;-74
2021/04/18 05:43:21;;;;;;;8.50;4.60;;;;;;;;;;5084734;28;20412;-74
2021/04/18 05:45:47;;;;;;;6.73;4.30;;;;;;;;;;5081687;28;20445;-74
2021/04/18 05:48:30;;;;;;;8.90;5.13;;;;;;;;;;5075234;28;20392;-74
2021/04/18 05:51:00;;;;;;;10.37;4.70;;;;;;;;;;5094928;28;20423;-74
2021/04/18 05:53:32;;;;;;;15.30;5.17;;;;;;;;;;5095114;28;20397;-74
2021/04/18 05:56:06;;;;;;;7.43;4.87;;;;;;;;;;5094885;28;21024;-74
2021/04/18 05:58:36;;;;;;;13.43;4.97;;;;;;;;;;5088130;28;20774;-74
2021/04/18 06:01:06;;;;;;;14.77;4.97;;;;;;;;;;5074314;28;20877;-74
2021/04/18 06:03:32;;;;;;;9.77;5.27;;;;;;;;;;5074833;28;20390;-74
2021/04/18 06:05:58;;;;;;;10.47;5.80;;;;;;;;;;5086932;28;20519;-74
2021/04/18 06:09:05;;;;;;;8.13;5.27;;;8.80;1.00;;;;;;5093014;28;20885;-82
2021/04/18 06:11:36;;;;;;;10.27;5.60;;;;;;;;;;5074570;28;20425;-80
2021/04/18 06:14:29;;;;;;;14.90;5.43;;;8.80;1.00;;;;;;5079734;28;20988;-79
2021/04/18 06:16:56;;;;;;;13.20;5.83;;;;;;;;;;5079599;28;20454;-74
2021/04/18 06:19:22;;;;;;;9.03;6.00;;;9.00;1.00;;;;;;5092398;28;20429;-74
2021/04/18 06:21:47;;;;;;;9.50;5.53;;;9.10;1.00;;;;;;5094226;28;20400;-74
2021/04/18 06:24:13;;;;;;;12.47;5.80;;;9.20;1.00;;;;;;5094341;28;20162;-74
2021/04/18 06:26:42;;;;;;;9.30;5.20;;;9.20;1.00;;;;;;5093867;28;20611;-75
2021/04/18 06:29:08;;;;;;;10.50;6.07;;;9.30;1.00;;;;;;5082130;28;20428;-74
2021/04/18 06:31:34;;;;;;;12.70;6.23;;;;;;;;;;5074954;28;20413;-74
2021/04/18 06:34:00;;;;;;;15.97;6.30;;;;;;;;;;5072626;28;20522;-74
2021/04/18 06:36:31;;;;;;;12.33;6.50;;;9.30;1.00;;;;;;5073984;28;20984;-74
2021/04/18 06:38:58;;;;;;;12.87;6.90;;;9.30;1.00;;;;;;5073995;28;20483;-74
2021/04/18 06:41:24;;;;;;;14.20;6.50;;;9.40;1.00;;;;;;5084537;28;20889;-75
2021/04/18 06:43:51;;;;;;;13.93;6.43;;;9.40;1.00;;;;;;5080318;28;20425;-74
2021/04/18 06:46:19;;;;;;;10.57;6.90;;;9.40;1.00;;;;;;5073695;28;20429;-74
2021/04/18 06:48:49;;;;;;;13.90;7.87;;;9.40;1.00;;;;;;5073984;28;20408;-74
2021/04/18 06:51:18;;;;;;;15.97;7.97;;;9.40;1.00;;;;;;5074272;28;20435;-75
2021/04/18 06:53:48;;;;;;;13.13;6.83;;;;;;;;;;5073605;28;20471;-76
2021/04/18 06:56:14;;;;;;;16.13;8.20;;;;;;;;;;5073790;28;20777;-74
2021/04/18 06:58:42;;;;;;;14.00;8.00;;;;;;;;;;5074392;28;20751;-74
2021/04/18 07:01:08;;;;;;;14.57;8.33;;;;;;;;;;5076590;28;20810;-74
2021/04/18 07:04:10;;;;;;;16.10;7.87;;;9.60;1.00;;;;;;5090259;28;20909;-74
2021/04/18 07:06:39;;;;;;;22.63;8.63;;;9.70;1.00;;;;;;5051014;28;20464;-74
2021/04/18 07:09:05;;;;;;;13.43;8.10;;;;;;;;;;5043712;28;20434;-74
2021/04/18 07:11:59;;;;;;;13.33;7.60;;;9.80;1.00;;;;;;5047251;28;20427;-74
2021/04/18 07:14:42;;;;;;;15.90;8.70;;;;;;;;;;5047371;28;20417;-74
2021/04/18 07:17:18;;;;;;;14.53;7.23;;;;;;;;;;5031358;28;21062;-74
2021/04/18 07:19:50;;;;;;;15.77;8.40;;;9.90;1.00;;;;;;5042634;28;20425;-74
2021/04/18 07:22:17;;;;;;;13.97;7.87;;;9.90;1.00;;;;;;5050171;28;20444;-74
2021/04/18 07:24:49;;;;;;;19.30;7.53;;;;;;;;;;5050975;28;20441;-74
2021/04/18 07:27:15;;;;;;;14.50;6.60;;;;;;;;;;5051008;28;20394;-74
2021/04/18 07:29:41;;;;;;;15.30;7.50;;;;;;;;;;5051608;28;20437;-74
2021/04/18 07:32:21;;;;;;;14.10;7.83;;;;;;;;;;5051327;28;20420;-74
2021/04/18 07:34:48;;;;;;;11.43;7.40;;;;;;;;;;5043155;28;20427;-74
2021/04/18 07:37:32;;;;;;;16.17;8.10;;;;;;;;;;5020539;28;20533;-74
2021/04/18 07:40:04;;;;;;;17.10;8.40;;;10.30;1.00;;;;;;5055369;28;20402;-74
2021/04/18 07:42:39;;;;;;;29.63;8.43;;;10.40;1.00;;;;;;5070519;28;20775;-74
2021/04/18 07:45:05;;;;;;;14.03;8.07;;;;;;;;;;5095817;28;20549;-74
2021/04/18 07:47:34;;;;;;;17.87;8.60;;;10.50;1.00;;;;;;5097036;28;20453;-74
2021/04/18 07:50:00;;;;;;;15.03;8.60;;;;;;;;;;5077245;28;20417;-74
2021/04/18 07:52:28;;;;;;;13.50;7.80;;;10.60;1.00;;;;;;5077142;28;20397;-73
2021/04/18 07:54:54;;;;;;;15.10;7.77;;;10.60;1.00;;;;;;5077322;28;20436;-74
2021/04/18 07:57:21;;;;;;;16.30;8.37;;;10.70;1.00;;;;;;5076978;28;21057;-74
2021/04/18 07:59:48;;;;;;;15.60;8.63;;;;;;;;;;5084141;28;20175;-73
2021/04/18 08:02:21;;;;;;;14.77;7.97;;;11.00;1.00;;;;;;5077853;28;20417;-73
2021/04/18 08:04:51;;;;;;;11.60;7.60;;;11.30;1.00;;;;;;5079698;28;20493;-73
2021/04/18 08:07:17;;;;;;;15.30;8.13;;;11.60;1.00;;;;;;5079505;28;20478;-74
2021/04/18 08:09:43;;;;;;;15.03;7.30;;;11.80;1.00;;;;;;5085276;28;20513;-73
2021/04/18 08:12:18;;;;;;;14.70;7.60;;;11.90;1.00;;;;;;5096276;28;20461;-73
2021/04/18 08:14:48;;;;;;;13.73;6.97;;;12.00;1.00;;;;;;5086893;28;20660;-73
2021/04/18 08:17:16;;;;;;;14.37;7.10;;;12.10;1.00;;;;;;5096904;28;20440;-73
2021/04/18 08:19:59;;;;;;;13.07;7.23;;;12.20;1.00;;;;;;5081143;28;20417;-73
2021/04/18 08:22:56;;;;;;;13.03;6.93;;;12.40;1.00;;;;;;5076135;28;20405;-73
2021/04/18 08:25:22;;;;;;;19.50;7.47;;;12.50;1.00;;;;;;5074234;28;20394;-73
2021/04/18 08:28:16;;;;;;;14.60;7.67;;;12.70;1.00;;;;;;5058143;28;20484;-73
2021/04/18 08:31:09;;;;;;;17.33;7.80;;;12.70;1.00;;;;;;5014335;28;20195;-74
2021/04/18 08:33:38;;;;;;;12.60;7.30;;;12.80;1.00;;;;;;4974874;28;20422;-74
2021/04/18 08:36:16;;;;;;;14.00;7.47;;;12.90;1.00;;;;;;4994483;28;20483;-74
2021/04/18 08:38:44;;;;;;;10.67;6.80;;;12.90;1.00;;;;;;4994480;28;20438;-74
2021/04/18 08:41:18;;;;;;;12.83;7.13;;;12.90;1.00;;;;;;4994568;28;20421;-74
2021/04/18 08:44:21;;;;;;;12.10;7.43;;;12.90;1.00;;;;;;4994803;28;20843;-73
2021/04/18 08:46:58;;;;;;;17.13;7.77;;;12.90;1.00;;;;;;4993979;28;20417;-73
2021/04/18 08:49:32;;;;;;;12.30;6.07;;;12.50;1.00;;;;;;4993705;28;20429;-73
2021/04/18 08:52:00;;;;;;;10.60;6.83;;;12.50;1.00;;;;;;4994161;28;20429;-73
2021/04/18 08:54:31;;;;;;;15.10;7.73;;;12.60;1.00;;;;;;4994358;28;20417;-74
2021/04/18 08:57:10;;;;;;;12.47;6.80;;;12.50;1.00;;;;;;4993916;28;20472;-73
2021/04/18 08:59:37;;;;;;;14.90;7.13;;;12.40;1.00;;;;;;4994298;28;20425;-74
2021/04/18 09:02:08;;;;;;;14.43;7.10;;;12.50;1.00;;;;;;4986068;28;20430;-74
2021/04/18 09:04:36;;;;;;;12.90;7.00;;;12.60;1.00;;;;;;4973314;28;20453;-74
2021/04/18 09:07:05;;;;;;;11.80;6.97;;;12.80;1.00;;;;;;5003535;28;20466;-74
2021/04/18 09:09:31;;;;;;;14.43;6.57;;;;;;;;;;5053875;28;20433;-74
2021/04/18 09:11:58;;;;;;;13.00;6.80;;;12.90;1.00;;;;;;5075500;28;20404;-74
2021/04/18 09:14:30;;;;;;;13.87;7.00;;;12.60;1.00;;;;;;5079219;28;20403;-74
2021/04/18 09:17:11;;;;;;;10.47;6.17;;;12.60;1.00;;;;;;5074545;28;20460;-74
2021/04/18 09:19:37;;;;;;;13.57;6.77;;;12.70;1.00;;;;;;5075458;28;20397;-74
2021/04/18 09:22:15;;;;;;;11.17;6.57;;;12.80;1.00;;;;;;5087518;28;20491;-74
2021/04/18 09:24:53;;;;;;;13.47;6.80;;;12.90;1.00;;;;;;5095710;28;20395;-74
2021/04/18 09:27:25;;;;;;;10.77;6.70;;;13.00;1.00;;;;;;5076836;28;20508;-74
2021/04/18 09:29:56;;;;;;;15.77;7.37;;;13.00;1.00;;;;;;5075519;28;20451;-73
2021/04/18 09:32:24;;;;;;;9.27;6.50;;;13.20;1.00;;;;;;5073767;28;20399;-73
2021/04/18 09:34:50;;;;;;;12.40;6.67;;;13.30;1.00;;;;;;5095028;28;20416;-73
2021/04/18 09:37:16;;;;;;;11.97;6.93;;;;;;;;;;5093859;28;20456;-74
2021/04/18 09:39:42;;;;;;;12.70;6.80;;;;;;;;;;5091054;28;20739;-73
2021/04/18 09:42:13;;;;;;;16.40;7.73;;;;;;;;;;5093864;28;20744;-73
2021/04/18 09:44:45;;;;;;;13.43;6.97;;;;;;;;;;5095320;28;20461;-73
2021/04/18 09:47:38;;;;;;;18.33;7.07;;;12.10;1.00;;;;;;5094997;28;20389;-73
2021/04/18 09:50:15;;;;;;;18.00;7.93;;;12.20;1.00;;;;;;5092150;28;20754;-73
2021/04/18 09:52:42;;;;;;;16.37;8.27;;;;;;;;;;5074966;28;20476;-73
2021/04/18 09:55:15;;;;;;;13.30;7.17;;;12.40;1.00;;;;;;5073586;28;20410;-73
2021/04/18 09:57:47;;;;;;;17.37;7.37;;;;;;;;;;5076066;28;20457;-73
2021/04/18 10:00:25;;;;;;;15.93;8.33;;;12.50;1.00;;;;;;5079050;28;20550;-74
2021/04/18 10:03:01;;;;;;;15.90;8.03;;;12.50;1.00;;;;;;5073625;28;20417;-74
2021/04/18 10:05:28;;;;;;;12.37;6.53;;;12.50;1.00;;;;;;5083797;28;20471;-74
2021/04/18 10:08:24;;;;;;;13.53;7.50;;;12.60;1.00;;;;;;5078323;28;20437;-74
2021/04/18 10:10:54;;;;;;;11.87;6.63;;;12.60;1.00;;;;;;5081413;28;20793;-74
2021/04/18 10:13:36;;;;;;;14.63;7.60;;;12.60;1.00;;;;;;5074375;28;20460;-74
2021/04/18 10:16:13;;;;;;;13.73;7.07;;;12.60;1.00;;;;;;5077949;28;20500;-74
2021/04/18 10:19:01;;;;;;;11.70;7.13;;;12.50;1.00;;;;;;5089006;28;20396;-74
2021/04/18 10:21:26;;;;;;;13.30;7.53;;;12.50;1.00;;;;;;5089963;28;20475;-74
2021/04/18 10:23:52;;;;;;;13.70;7.40;;;;;;;;;;5072963;28;20405;-74
2021/04/18 10:26:20;;;;;;;15.93;6.80;;;12.60;1.00;;;;;;5073916;28;20589;-74
2021/04/18 10:28:55;;;;;;;10.23;6.57;;;12.60;1.00;;;;;;5074083;28;20408;-74
2021/04/18 10:31:25;;;;;;;11.10;6.20;;;12.70;1.00;;;;;;5074399;28;20409;-73
2021/04/18 10:33:51;;;;;;;11.73;6.67;;;;;;;;;;5075432;28;20440;-73
2021/04/18 10:36:17;;;;;;;12.90;7.50;;;12.80;1.00;;;;;;5074017;28;20451;-73
2021/04/18 10:38:44;;;;;;;14.10;7.00;;;13.00;1.00;;;;;;5077500;28;20421;-74
2021/04/18 10:41:10;;;;;;;12.40;7.13;;;;;;;;;;5093228;28;20397;-74
2021/04/18 10:43:36;;;;;;;14.90;8.13;;;;;;;;;;5088116;28;20376;-73
2021/04/18 10:46:03;;;;;;;12.73;7.17;;;12.70;1.00;;;;;;5074032;28;20425;-74
2021/04/18 10:48:30;;;;;;;15.40;7.87;;;12.90;1.00;;;;;;5073987;28;20426;-74
2021/04/18 10:50:56;;;;;;;14.30;7.53;;;13.10;1.00;;;;;;5073840;28;20397;-74
2021/04/18 10:53:22;;;;;;;13.40;7.43;;;;;;;;;;5073793;28;20389;-74
2021/04/18 10:55:48;;;;;;;15.27;6.90;;;13.60;1.00;;;;;;5075674;28;20227;-74
2021/04/18 10:58:15;;;;;;;15.30;8.07;;;14.00;1.00;;;;;;5075498;28;20448;-74
2021/04/18 11:00:48;;;;;;;17.70;8.33;;;14.30;1.00;;;;;;5094232;28;20151;-73
2021/04/18 11:03:14;;;;;;;14.73;6.73;;;14.30;1.00;;;;;;5093910;28;20396;-73
2021/04/18 11:05:40;;;;;;;13.97;7.80;;;;;;;;;;5087531;28;20445;-73
2021/04/18 11:08:08;;;;;;;11.23;6.87;;;;;;;;;;5092512;28;20209;-73
2021/04/18 11:10:33;;;;;;;16.30;7.70;;;14.90;1.00;;;;;;5092859;28;20395;-73
2021/04/18 11:12:59;;;;;;;16.23;8.13;;;;;;;;;;5084882;28;20446;-73
2021/04/18 11:15:30;;;;;;;24.33;9.20;;;14.80;1.00;;;;;;5088508;28;20662;-74
2021/04/18 11:17:56;;;;;;;12.43;7.00;;;14.90;1.00;;;;;;5093598;28;20417;-74
2021/04/18 11:20:25;;;;;;;20.63;7.53;;;14.90;1.00;;;;;;5090756;28;20706;-74
2021/04/18 11:22:54;;;;;;;13.83;7.50;;;14.90;1.00;;;;;;5073249;28;20170;-74
2021/04/18 11:25:20;;;;;;;11.33;7.10;;;15.20;1.00;;;;;;5073385;28;20862;-74
2021/04/18 11:27:47;;;;;;;10.60;6.57;;;;;;;;;;5073055;28;20428;-74
2021/04/18 11:30:15;;;;;;;15.07;6.90;;;15.20;1.00;;;;;;5073653;28;20150;-73
2021/04/18 11:32:41;;;;;;;9.97;6.67;;;;;;;;;;5082371;28;20371;-74
2021/04/18 11:35:09;;;;;;;11.90;7.33;;;14.50;1.00;;;;;;5092364;28;20378;-74
2021/04/18 11:37:36;;;;;;;14.63;7.23;;;;;;;;;;5093451;28;20415;-74
2021/04/18 11:40:07;;;;;;;13.60;6.53;;;14.50;1.00;;;;;;5093441;28;20446;-74
2021/04/18 11:42:33;;;;;;;10.07;6.70;;;14.40;1.00;;;;;;5092233;28;20403;-74
2021/04/18 11:45:02;;;;;;;12.53;5.60;;;14.00;1.00;;;;;;5093433;28;20432;-74
2021/04/18 11:47:28;;;;;;;7.73;5.87;;;13.90;1.00;;;;;;5093650;28;20393;-73
2021/04/18 11:49:54;;;;;;;10.50;5.90;;;;;;;;;;5092463;28;20415;-73
2021/04/18 11:52:20;;;;;;;10.70;6.00;;;;;;;;;;5092000;28;20424;-73
2021/04/18 11:54:46;;;;;;;13.93;5.47;;;;;;;;;;5081925;28;20452;-73
2021/04/18 11:57:13;;;;;;;12.30;6.20;;;;;;;;;;5090642;28;20510;-73
2021/04/18 11:59:39;;;;;;;9.47;5.50;;;;;;;;;;5072901;28;20416;-73
2021/04/18 12:02:05;;;;;;;11.03;6.47;;;;;;;;;;5079499;28;20454;-73
2021/04/18 12:04:31;;;;;;;12.93;5.87;;;;;;;;;;5091143;28;20458;-73
2021/04/18 12:06:57;;;;;;;10.00;6.20;;;14.90;1.00;;;;;;5084641;28;20940;-73
2021/04/18 12:09:22;;;;;;;10.07;5.70;;;15.00;1.00;;;;;;5089216;28;20456;-73
2021/04/18 12:11:48;;;;;;;13.60;7.00;;;15.20;1.00;;;;;;5077021;28;20254;-74
2021/04/18 12:14:14;;;;;;;13.17;6.50;;;15.50;1.00;;;;;;5072644;28;20182;-70
2021/04/18 12:16:54;;;;;;;13.63;6.77;;;;;;;;;;5073740;28;20242;-76
2021/04/18 12:22:54;;;;;;;7.60;5.30;;;15.50;1.00;;;;;;5081693;28;20400;-78
2021/04/18 12:25:54;;;;;;;14.27;6.00;;;15.30;1.00;;;;;;5076187;28;20857;-79
2021/04/18 12:28:26;;;;;;;9.17;5.60;;;;;;;;;;5076232;28;20411;-79
2021/04/18 12:30:52;;;;;;;12.53;5.40;;;;;;;;;;5081442;28;20908;-75
2021/04/18 12:33:18;;;;;;;15.20;6.13;;;;;;;;;;5094121;28;20892;-73
2021/04/18 12:35:44;;;;;;;9.73;5.60;;;;;;;;;;5095395;28;21219;-74
2021/04/18 12:38:12;;;;;;;18.67;6.30;;;15.00;1.00;;;;;;5084677;28;20914;-74
2021/04/18 12:40:38;;;;;;;9.53;5.50;;;;;;;;;;5096215;28;20428;-74
2021/04/18 12:43:04;;;;;;;7.80;5.30;;;15.50;1.00;;;;;;5088273;28;20431;-74
2021/04/18 12:45:30;;;;;;;11.73;5.73;;;;;;;;;;5079284;28;20407;-74
2021/04/18 12:47:56;;;;;;;9.40;5.40;;;16.20;1.00;;;;;;5093664;28;20420;-71
2021/04/18 12:50:22;;;;;;;10.57;5.47;;;16.60;1.00;;;;;;5095756;28;20416;-74
2021/04/18 12:52:48;;;;;;;8.90;5.03;;;16.50;1.00;;;;;;5095646;28;20174;-72
2021/04/18 12:55:15;;;;;;;10.20;4.87;;;16.20;1.00;;;;;;5076015;28;20392;-74
2021/04/18 12:57:41;;;;;;;9.90;4.90;;;16.30;1.00;;;;;;5075226;28;20453;-73
2021/04/18 13:00:10;;;;;;;11.53;6.03;;;16.60;1.00;;;;;;5075422;28;20422;-73
2021/04/18 13:02:36;;;;;;;7.70;4.87;;;16.90;1.00;;;;;;5076299;28;20444;-72
2021/04/18 13:05:02;;;;;;;8.43;5.20;;;;;;;;;;5076039;28;20460;-73
2021/04/18 13:07:35;;;;;;;9.13;5.33;;;16.80;1.00;;;;;;5075514;28;20401;-73
2021/04/18 13:10:07;;;;;;;10.67;5.17;;;16.40;1.00;;;;;;5075561;28;20387;-73
2021/04/18 13:12:34;;;;;;;8.70;5.00;;;;;;;;;;5082307;28;20423;-73
2021/04/18 13:15:01;;;;;;;8.13;5.13;;;;;;;;;;5087257;28;20390;-72
2021/04/18 13:17:27;;;;;;;9.90;5.97;;;15.50;1.00;;;;;;5094721;28;20456;-75
2021/04/18 13:19:54;;;;;;;9.67;5.60;;;;;;;;;;5096003;28;20378;-74
2021/04/18 13:22:31;;;;;;;7.67;4.90;;;;;;;;;;5095666;28;20446;-75
2021/04/18 13:25:00;;;;;;;10.73;5.87;;;;;;;;;;5087775;28;20379;-74
2021/04/18 13:27:27;;;;;;;12.07;5.20;;;;;;;;;;5074554;28;20372;-74
2021/04/18 13:29:53;;;;;;;12.13;5.80;;;;;;;;;;5074550;28;20428;-75
2021/04/18 13:32:19;;;;;;;7.57;5.30;;;;;;;;;;5075218;28;20849;-72
2021/04/18 13:34:45;;;;;;;9.93;5.63;;;;;;;;;;5075633;28;20404;-72
2021/04/18 13:37:11;;;;;;;7.70;4.60;;;;;;;;;;5095040;28;20444;-72
2021/04/18 13:39:37;;;;;;;13.80;5.10;;;;;;;;;;5092639;28;20408;-73
2021/04/18 13:42:03;;;;;;;7.17;4.60;;;15.40;1.00;;;;;;5093484;28;20395;-72
2021/04/18 13:44:29;;;;;;;9.80;5.40;;;;;;;;;;5094409;28;20406;-72
2021/04/18 13:46:55;;;;;;;9.57;5.17;;;15.80;1.00;;;;;;5078700;28;20412;-73
2021/04/18 13:49:21;;;;;;;9.40;6.30;;;;;;;;;;5074167;28;20495;-72
2021/04/18 13:51:47;;;;;;;11.60;5.97;;;15.60;1.00;;;;;;5088422;28;20186;-72
2021/04/18 13:54:13;;;;;;;9.03;5.10;;;15.80;1.00;;;;;;5093785;28;20390;-72
2021/04/18 13:56:38;;;;;;;9.83;4.93;;;15.90;1.00;;;;;;5086770;28;20257;-72
2021/04/18 13:59:07;;;;;;;5.33;3.93;;;;;;;;;;5074602;28;20496;-72
2021/04/18 14:01:33;;;;;;;7.00;4.50;;;15.80;1.00;;;;;;5074425;28;20687;-73
2021/04/18 14:03:59;;;;;;;9.30;5.10;;;;;;;;;;5076644;28;20407;-75
2021/04/18 14:06:26;;;;;;;10.47;4.60;;;;;;;;;;5090961;28;20751;-75